< < Back
Terminal Aerodrome Forecast


Current Version              Previous Versions:   1  2  3  4  5  6  7  8  9  

Terminal Aerodrome Forecast

138
FTUS42 KGSP 060550 CCA
TAFCLT
TAF COR
KCLT 060550Z 0606/0706 02008G16KT P6SM SCT025 BKN050
     FM061200 03010KT P6SM SCT030
     FM061800 36005KT P6SM FEW250=

Latest METAR

954
SAUS70 KWBC 060700
MTRCLT
METAR KCLT 060652Z 02010KT 10SM OVC060 01/M06 A3035 RMK AO2 SLP280
T00111061


USA.gov is the U.S. government's official web portal to all federal, state and local government web resources and services.